createdAt,value
2018-10-01T00:00:17.983Z,5.92
2018-10-01T00:02:48.323Z,5.96
2018-10-01T00:05:18.699Z,5.88
2018-10-01T00:07:49.099Z,5.82
2018-10-01T00:10:19.652Z,5.73
2018-10-01T00:12:50.258Z,5.72
2018-10-01T00:15:20.554Z,5.60
2018-10-01T00:17:51.096Z,5.48
2018-10-01T00:20:26.378Z,5.62
2018-10-01T00:22:56.796Z,5.57
2018-10-01T00:25:27.291Z,5.58
2018-10-01T00:27:57.889Z,5.66
2018-10-01T00:30:28.376Z,5.69
2018-10-01T00:32:58.782Z,5.65
2018-10-01T00:35:29.210Z,5.67
2018-10-01T00:37:59.608Z,5.66
2018-10-01T00:40:29.979Z,5.72
2018-10-01T00:43:11.972Z,5.70
2018-10-01T00:45:42.421Z,5.68
2018-10-01T00:48:12.980Z,5.73
2018-10-01T00:50:43.391Z,5.79
2018-10-01T00:53:13.714Z,5.86
2018-10-01T00:55:44.213Z,5.97
2018-10-01T00:58:14.711Z,6.12
2018-10-01T01:00:45.311Z,6.24
2018-10-01T01:03:15.655Z,6.38
2018-10-01T01:05:45.933Z,6.48
2018-10-01T01:08:16.500Z,6.55
2018-10-01T01:10:46.808Z,6.63
2018-10-01T01:13:17.509Z,6.69
2018-10-01T01:15:47.879Z,6.83
2018-10-01T01:18:19.152Z,6.93
2018-10-01T01:20:49.665Z,7.03
2018-10-01T01:23:20.131Z,7.11
2018-10-01T01:25:50.316Z,7.13
2018-10-01T01:28:20.684Z,7.12
2018-10-01T01:30:50.984Z,7.15
2018-10-01T01:33:21.444Z,7.20
2018-10-01T01:35:51.716Z,7.18
2018-10-01T01:38:36.896Z,7.15
2018-10-01T01:41:07.533Z,7.16
2018-10-01T01:43:38.148Z,7.15
2018-10-01T01:46:08.708Z,7.15
2018-10-01T01:48:39.086Z,7.20
2018-10-01T01:51:09.847Z,7.21
2018-10-01T01:53:40.140Z,7.19
2018-10-01T01:56:10.603Z,7.23
2018-10-01T01:58:41.104Z,7.21
2018-10-01T02:01:11.398Z,7.22
2018-10-01T02:03:41.653Z,7.15
2018-10-01T02:06:12.035Z,7.15
2018-10-01T02:08:42.388Z,7.20
2018-10-01T02:11:12.815Z,7.27
2018-10-01T02:13:43.144Z,7.25
2018-10-01T02:16:13.551Z,7.25
2018-10-01T02:18:44.058Z,7.19
2018-10-01T02:21:14.519Z,7.18
2018-10-01T02:23:44.862Z,7.19
2018-10-01T02:26:15.176Z,7.18
2018-10-01T02:28:45.635Z,7.20
2018-10-01T02:31:15.940Z,7.20
2018-10-01T02:33:46.520Z,7.22
2018-10-01T02:36:16.917Z,7.22
2018-10-01T02:38:47.272Z,7.22
2018-10-01T02:41:18.091Z,7.27
2018-10-01T02:43:48.537Z,7.21
2018-10-01T02:46:19.045Z,7.22
2018-10-01T02:48:49.410Z,7.39
2018-10-01T02:51:19.583Z,7.43
2018-10-01T02:53:55.027Z,7.46
2018-10-01T02:56:25.367Z,7.51
2018-10-01T02:58:55.841Z,7.58
2018-10-01T03:01:26.128Z,7.68
2018-10-01T03:03:56.379Z,7.79
2018-10-01T03:06:26.799Z,7.86
2018-10-01T03:08:57.246Z,7.92
2018-10-01T03:11:27.548Z,7.97
2018-10-01T03:13:57.802Z,8.01
2018-10-01T03:16:28.229Z,7.98
2018-10-01T03:18:58.671Z,8.00
2018-10-01T03:21:29.060Z,8.03
2018-10-01T03:23:59.416Z,8.04
2018-10-01T03:26:29.719Z,7.99
2018-10-01T03:29:00.768Z,7.98
2018-10-01T03:31:31.167Z,8.12
2018-10-01T03:34:01.677Z,8.20
2018-10-01T03:36:32.052Z,8.12
2018-10-01T03:39:02.422Z,8.12
2018-10-01T03:41:32.694Z,8.18
2018-10-01T03:44:03.168Z,8.14
2018-10-01T03:46:33.494Z,8.15
2018-10-01T03:49:03.756Z,8.24
2018-10-01T03:51:34.115Z,8.30
2018-10-01T03:54:04.540Z,8.30
2018-10-01T03:56:34.998Z,8.41
2018-10-01T03:59:05.468Z,8.42
2018-10-01T04:01:35.667Z,8.58
2018-10-01T04:04:06.000Z,8.62
2018-10-01T04:06:36.388Z,8.68
2018-10-01T04:09:08.999Z,8.62
2018-10-01T04:11:39.835Z,8.69
2018-10-01T04:14:10.385Z,8.72
2018-10-01T04:16:40.768Z,8.77
2018-10-01T04:19:11.179Z,8.73
2018-10-01T04:21:41.592Z,8.70
2018-10-01T04:24:12.008Z,8.70
2018-10-01T04:26:42.301Z,8.68
2018-10-01T04:29:13.979Z,8.59
2018-10-01T04:31:45.516Z,8.61
2018-10-01T04:34:16.156Z,8.63
2018-10-01T04:36:46.603Z,8.67
2018-10-01T04:39:17.268Z,8.67
2018-10-01T04:41:47.765Z,8.75
2018-10-01T04:44:18.038Z,8.75
2018-10-01T04:46:48.320Z,8.77
2018-10-01T04:49:18.861Z,8.79
2018-10-01T04:51:49.179Z,8.81
2018-10-01T04:54:19.540Z,8.88
2018-10-01T04:56:49.710Z,8.84
2018-10-01T04:59:20.185Z,8.83
2018-10-01T05:01:50.497Z,8.94
2018-10-01T05:04:20.747Z,9.05
2018-10-01T05:06:51.239Z,9.13
2018-10-01T05:09:21.625Z,9.12
2018-10-01T05:11:52.085Z,9.22
2018-10-01T05:14:22.584Z,9.37
2018-10-01T05:16:53.728Z,9.42
2018-10-01T05:19:24.172Z,9.45
2018-10-01T05:21:54.651Z,9.53
2018-10-01T05:24:24.893Z,9.53
2018-10-01T05:26:55.241Z,9.49
2018-10-01T05:29:26.361Z,9.53
2018-10-01T05:31:56.684Z,9.46
2018-10-01T05:34:27.132Z,9.60
2018-10-01T05:36:57.595Z,9.58
2018-10-01T05:39:28.221Z,9.59
2018-10-01T05:41:58.718Z,9.59
2018-10-01T05:44:29.383Z,9.72
2018-10-01T05:46:59.898Z,9.74
2018-10-01T05:49:30.349Z,9.89
2018-10-01T05:52:00.737Z,9.86
2018-10-01T05:54:31.200Z,9.88
2018-10-01T05:57:01.681Z,9.88
2018-10-01T05:59:32.040Z,9.90
2018-10-01T06:02:02.338Z,9.91
2018-10-01T06:04:32.603Z,10.05
2018-10-01T06:07:03.033Z,9.95
2018-10-01T06:09:33.492Z,10.04
2018-10-01T06:12:03.751Z,10.09
2018-10-01T06:14:34.248Z,10.23
2018-10-01T06:17:29.900Z,10.30
2018-10-01T06:20:00.422Z,10.31
2018-10-01T06:22:30.798Z,10.27
2018-10-01T06:25:01.306Z,10.36
2018-10-01T06:27:31.753Z,10.51
2018-10-01T06:30:02.214Z,10.41
2018-10-01T06:32:33.235Z,10.37
2018-10-01T06:35:03.762Z,10.50
2018-10-01T06:37:34.060Z,10.60
2018-10-01T06:40:04.784Z,10.58
2018-10-01T06:42:35.036Z,10.60
2018-10-01T06:45:05.613Z,10.45
2018-10-01T06:47:36.117Z,10.40
2018-10-01T06:50:06.592Z,10.45
2018-10-01T06:52:36.858Z,10.58
2018-10-01T06:55:07.564Z,10.54
2018-10-01T06:57:38.016Z,10.53
2018-10-01T07:00:09.860Z,10.60
2018-10-01T07:02:40.113Z,10.79
2018-10-01T07:05:10.932Z,10.95
2018-10-01T07:07:41.417Z,10.79
2018-10-01T07:10:11.863Z,10.82
2018-10-01T07:12:42.244Z,10.74
2018-10-01T07:15:12.819Z,10.76
2018-10-01T07:17:43.425Z,10.82
2018-10-01T07:20:13.791Z,10.70
2018-10-01T07:22:44.148Z,10.67
2018-10-01T07:25:14.756Z,10.66
2018-10-01T07:27:45.251Z,10.61
2018-10-01T07:30:15.719Z,10.54
2018-10-01T07:32:46.097Z,10.61
2018-10-01T07:35:16.609Z,10.63
2018-10-01T07:37:47.068Z,10.72
2018-10-01T07:40:17.447Z,10.93
2018-10-01T07:42:47.814Z,11.01
2018-10-01T07:45:18.412Z,11.02
2018-10-01T07:47:49.435Z,11.26
2018-10-01T07:50:19.864Z,11.29
2018-10-01T07:52:51.060Z,11.35
2018-10-01T07:55:21.452Z,11.25
2018-10-01T07:57:51.812Z,11.47
2018-10-01T08:00:22.232Z,11.46
2018-10-01T08:02:52.731Z,11.23
2018-10-01T08:05:22.989Z,11.51
2018-10-01T08:07:53.364Z,11.43
2018-10-01T08:10:23.812Z,11.57
2018-10-01T08:12:54.289Z,11.63
2018-10-01T08:15:24.715Z,11.61
2018-10-01T08:17:55.099Z,11.78
2018-10-01T08:20:25.656Z,11.60
2018-10-01T08:22:55.949Z,11.88
2018-10-01T08:25:26.489Z,11.79
2018-10-01T08:27:56.696Z,12.20
2018-10-01T08:30:27.068Z,12.20
2018-10-01T08:32:57.471Z,12.43
2018-10-01T08:35:28.003Z,12.33
2018-10-01T08:37:58.932Z,12.30
2018-10-01T08:40:36.155Z,12.37
2018-10-01T08:43:06.561Z,12.25
2018-10-01T08:45:37.159Z,12.53
2018-10-01T08:48:07.849Z,12.62
2018-10-01T08:50:43.544Z,12.80
2018-10-01T08:55:28.252Z,13.38
2018-10-01T08:57:58.746Z,15.29
2018-10-01T09:00:29.325Z,15.77
2018-10-01T09:02:59.739Z,16.22
2018-10-01T09:05:30.336Z,15.36
2018-10-01T09:08:00.889Z,14.87
2018-10-01T09:10:31.128Z,14.66
2018-10-01T09:13:02.031Z,13.94
2018-10-01T09:15:32.553Z,13.41
2018-10-01T09:18:03.040Z,13.52
2018-10-01T09:20:33.428Z,13.83
2018-10-01T09:23:04.053Z,14.02
2018-10-01T09:25:34.268Z,14.15
2018-10-01T09:28:04.741Z,14.11
2018-10-01T09:30:35.212Z,14.30
2018-10-01T09:33:05.671Z,15.29
2018-10-01T09:35:36.396Z,15.41
2018-10-01T09:38:07.243Z,15.39
2018-10-01T09:40:37.773Z,15.28
2018-10-01T09:43:08.338Z,15.85
2018-10-01T09:45:39.233Z,16.00
2018-10-01T09:48:09.808Z,15.99
2018-10-01T09:50:40.229Z,15.47
2018-10-01T09:53:10.488Z,16.00
2018-10-01T09:55:40.960Z,16.50
2018-10-01T09:58:11.462Z,15.79
2018-10-01T10:00:42.775Z,15.25
2018-10-01T10:03:13.403Z,14.98
2018-10-01T10:05:43.914Z,15.45
2018-10-01T10:08:14.436Z,14.82
2018-10-01T10:10:44.965Z,14.99
2018-10-01T10:13:15.350Z,15.67
2018-10-01T10:15:45.745Z,15.92
2018-10-01T10:18:16.230Z,15.43
2018-10-01T10:20:46.797Z,14.97
2018-10-01T10:23:17.279Z,14.45
2018-10-01T10:25:47.764Z,14.34
2018-10-01T10:28:18.497Z,14.04
2018-10-01T10:30:48.835Z,13.99
2018-10-01T10:33:19.326Z,13.86
2018-10-01T10:35:49.779Z,14.56
2018-10-01T10:38:20.274Z,15.10
2018-10-01T10:40:50.767Z,15.59
2018-10-01T10:43:21.101Z,16.14
2018-10-01T10:45:51.452Z,16.66
2018-10-01T10:48:25.023Z,17.06
2018-10-01T10:50:55.477Z,16.36
2018-10-01T10:53:25.981Z,15.66
2018-10-01T10:55:56.357Z,14.47
2018-10-01T10:58:26.621Z,13.38
2018-10-01T11:00:57.197Z,12.70
2018-10-01T11:03:27.482Z,12.16
2018-10-01T11:05:58.413Z,12.10
2018-10-01T11:08:28.910Z,11.61
2018-10-01T11:10:59.563Z,11.69
2018-10-01T11:13:29.954Z,11.50
2018-10-01T11:16:01.137Z,11.68
2018-10-01T11:18:31.556Z,11.69
2018-10-01T11:21:02.011Z,11.81
2018-10-01T11:23:32.289Z,11.95
2018-10-01T11:26:02.641Z,12.27
2018-10-01T11:28:33.093Z,12.81
2018-10-01T11:31:03.547Z,13.03
2018-10-01T11:33:34.035Z,13.58
2018-10-01T11:36:04.653Z,14.34
2018-10-01T11:38:34.968Z,15.01
2018-10-01T11:41:05.514Z,15.04
2018-10-01T11:43:35.912Z,14.35
2018-10-01T11:46:06.409Z,14.06
2018-10-01T11:48:36.895Z,13.84
2018-10-01T11:51:07.580Z,13.67
2018-10-01T11:53:37.854Z,13.49
2018-10-01T11:56:08.361Z,13.43
2018-10-01T11:58:38.708Z,13.61
2018-10-01T12:01:09.497Z,13.75
2018-10-01T12:03:40.000Z,14.06
2018-10-01T12:06:10.459Z,14.09
2018-10-01T12:08:41.056Z,14.40
2018-10-01T12:11:11.623Z,14.23
2018-10-01T12:13:42.126Z,14.51
2018-10-01T12:16:12.588Z,14.46
2018-10-01T12:18:42.951Z,14.68
2018-10-01T12:21:13.553Z,14.63
2018-10-01T12:23:43.941Z,14.38
2018-10-01T12:26:14.430Z,14.32
2018-10-01T12:28:44.712Z,14.45
2018-10-01T12:31:15.119Z,14.36
2018-10-01T12:33:45.590Z,13.95
2018-10-01T12:36:16.240Z,13.54
2018-10-01T12:39:05.338Z,13.03
2018-10-01T12:41:35.739Z,12.70
2018-10-01T12:44:06.351Z,12.28
2018-10-01T12:46:36.784Z,12.00
2018-10-01T12:49:07.190Z,11.69
2018-10-01T12:51:37.623Z,11.79
2018-10-01T12:54:08.151Z,11.92
2018-10-01T12:56:38.720Z,11.98
2018-10-01T12:59:09.427Z,11.98
2018-10-01T13:01:39.792Z,11.89
2018-10-01T13:04:10.273Z,11.91
2018-10-01T13:06:40.700Z,12.07
2018-10-01T13:09:13.046Z,12.15
2018-10-01T13:11:43.469Z,12.25
2018-10-01T13:14:13.847Z,12.47
2018-10-01T13:16:44.196Z,12.52
2018-10-01T13:19:14.582Z,12.99
2018-10-01T13:21:44.965Z,13.07
2018-10-01T13:24:15.778Z,13.06
2018-10-01T13:26:46.243Z,13.11
2018-10-01T13:29:16.448Z,13.21
2018-10-01T13:31:46.864Z,13.35
2018-10-01T13:34:17.259Z,13.12
2018-10-01T13:36:47.853Z,13.12
2018-10-01T13:39:18.012Z,13.38
2018-10-01T13:41:48.493Z,13.67
2018-10-01T13:44:19.081Z,13.68
2018-10-01T13:46:49.501Z,13.64
2018-10-01T13:49:19.999Z,13.63
2018-10-01T13:51:50.553Z,13.39
2018-10-01T13:54:21.195Z,13.16
2018-10-01T13:56:51.352Z,13.15
2018-10-01T13:59:21.696Z,13.27
2018-10-01T14:01:52.100Z,12.97
2018-10-01T14:04:22.468Z,13.20
2018-10-01T14:06:52.811Z,13.06
2018-10-01T14:09:23.300Z,13.10
2018-10-01T14:11:53.788Z,12.81
2018-10-01T14:14:24.303Z,12.73
2018-10-01T14:16:55.166Z,12.66
2018-10-01T14:19:25.703Z,12.57
2018-10-01T14:21:56.037Z,12.54
2018-10-01T14:24:26.648Z,12.50
2018-10-01T14:26:57.248Z,12.42
2018-10-01T14:29:27.451Z,12.39
2018-10-01T14:31:57.961Z,12.34
2018-10-01T14:34:28.419Z,12.32
2018-10-01T14:36:59.053Z,12.35
2018-10-01T14:39:29.388Z,12.27
2018-10-01T14:41:59.896Z,12.28
2018-10-01T14:44:30.350Z,12.30
2018-10-01T14:47:00.934Z,12.25
2018-10-01T14:49:31.263Z,12.11
2018-10-01T14:52:01.586Z,12.00
2018-10-01T14:54:31.917Z,11.56
2018-10-01T14:57:02.505Z,11.17
2018-10-01T14:59:32.963Z,10.68
2018-10-01T15:02:03.535Z,10.55
2018-10-01T15:04:34.037Z,10.47
2018-10-01T15:07:04.289Z,10.22
2018-10-01T15:09:34.767Z,9.95
2018-10-01T15:12:05.359Z,9.88
2018-10-01T15:14:35.736Z,9.80
2018-10-01T15:17:06.418Z,9.92
2018-10-01T15:19:36.924Z,9.95
2018-10-01T15:22:07.325Z,10.01
2018-10-01T15:24:37.661Z,10.09
2018-10-01T15:27:08.243Z,9.87
2018-10-01T15:29:38.651Z,9.71
2018-10-01T15:32:09.300Z,9.79
2018-10-01T15:34:39.716Z,9.82
2018-10-01T15:37:09.976Z,9.75
2018-10-01T15:39:40.448Z,9.93
2018-10-01T15:42:11.047Z,9.97
2018-10-01T15:44:42.172Z,10.32
2018-10-01T15:47:12.471Z,10.38
2018-10-01T15:49:42.919Z,10.51
2018-10-01T15:52:13.304Z,10.57
2018-10-01T15:54:43.860Z,10.63
2018-10-01T15:57:14.243Z,10.60
2018-10-01T15:59:44.884Z,10.72
2018-10-01T16:02:15.388Z,10.72
2018-10-01T16:04:45.791Z,10.67
2018-10-01T16:07:16.080Z,10.52
2018-10-01T16:09:46.427Z,10.32
2018-10-01T16:12:17.409Z,10.09
2018-10-01T16:14:47.824Z,10.25
2018-10-01T16:17:18.150Z,9.93
2018-10-01T16:19:48.506Z,10.02
2018-10-01T16:22:19.063Z,10.04
2018-10-01T16:24:49.440Z,9.89
2018-10-01T16:27:19.818Z,9.80
2018-10-01T16:29:50.248Z,9.77
2018-10-01T16:32:20.641Z,9.54
2018-10-01T16:34:51.128Z,9.40
2018-10-01T16:37:21.609Z,9.45
2018-10-01T16:39:51.923Z,9.30
2018-10-01T16:42:22.185Z,9.08
2018-10-01T16:44:52.465Z,9.06
2018-10-01T16:47:22.963Z,9.14
2018-10-01T16:49:53.543Z,9.05
2018-10-01T16:52:24.023Z,9.01
2018-10-01T16:54:54.297Z,8.76
2018-10-01T16:57:24.540Z,8.66
2018-10-01T16:59:54.954Z,8.69
2018-10-01T17:02:25.527Z,8.59
2018-10-01T17:04:56.029Z,8.35
2018-10-01T17:07:26.976Z,8.27
2018-10-01T17:09:57.486Z,8.22
2018-10-01T17:12:27.954Z,8.09
2018-10-01T17:14:58.372Z,8.14
2018-10-01T17:17:28.920Z,8.05
2018-10-01T17:19:59.224Z,7.94
2018-10-01T17:22:29.565Z,8.02
2018-10-01T17:24:59.948Z,7.92
2018-10-01T17:27:30.424Z,7.83
2018-10-01T17:30:00.858Z,7.73
2018-10-01T17:32:31.051Z,7.73
2018-10-01T17:35:01.384Z,7.78
2018-10-01T17:37:31.881Z,7.71
2018-10-01T17:40:02.383Z,7.84
2018-10-01T17:42:32.939Z,7.67
2018-10-01T17:45:03.221Z,7.70
2018-10-01T17:47:33.696Z,7.70
2018-10-01T17:50:04.018Z,7.69
2018-10-01T17:52:34.281Z,7.88
2018-10-01T17:55:04.555Z,7.76
2018-10-01T17:57:34.962Z,7.73
2018-10-01T18:00:05.917Z,7.79
2018-10-01T18:02:36.388Z,7.84
2018-10-01T18:05:07.328Z,7.74
2018-10-01T18:07:37.948Z,7.71
2018-10-01T18:10:08.924Z,7.67
2018-10-01T18:12:39.434Z,7.62
2018-10-01T18:15:10.680Z,7.68
2018-10-01T18:17:41.118Z,7.63
2018-10-01T18:20:11.596Z,7.53
2018-10-01T18:22:42.159Z,7.64
2018-10-01T18:25:12.967Z,7.49
2018-10-01T18:27:43.347Z,7.60
2018-10-01T18:30:13.789Z,7.49
2018-10-01T18:32:44.176Z,7.45
2018-10-01T18:35:14.616Z,7.33
2018-10-01T18:37:45.127Z,7.18
2018-10-01T18:40:15.948Z,7.17
2018-10-01T18:42:46.923Z,7.13
2018-10-01T18:45:17.328Z,7.17
2018-10-01T18:47:47.860Z,7.26
2018-10-01T18:50:18.139Z,7.26
2018-10-01T18:52:48.664Z,7.26
2018-10-01T18:55:19.052Z,7.31
2018-10-01T18:57:49.471Z,7.36
2018-10-01T19:00:20.091Z,7.22
2018-10-01T19:02:51.044Z,7.27
2018-10-01T19:05:21.516Z,7.40
2018-10-01T19:07:51.883Z,7.37
2018-10-01T19:10:22.315Z,7.38
2018-10-01T19:12:52.732Z,7.31
2018-10-01T19:15:23.139Z,7.39
2018-10-01T19:17:53.547Z,7.38
2018-10-01T19:20:23.971Z,7.40
2018-10-01T19:22:54.968Z,7.41
2018-10-01T19:25:25.543Z,7.41
2018-10-01T19:27:56.033Z,7.49
2018-10-01T19:30:26.551Z,7.42
2018-10-01T19:32:57.368Z,7.48
2018-10-01T19:35:27.865Z,7.37
2018-10-01T19:37:58.278Z,7.33
2018-10-01T19:40:28.736Z,7.44
2018-10-01T19:42:59.317Z,7.33
2018-10-01T19:45:29.795Z,7.37
2018-10-01T19:48:00.443Z,7.33
2018-10-01T19:50:30.834Z,7.31
2018-10-01T19:53:28.429Z,7.28
2018-10-01T19:55:58.979Z,7.37
2018-10-01T19:58:29.330Z,7.38
2018-10-01T20:00:59.843Z,7.24
2018-10-01T20:03:30.364Z,7.19
2018-10-01T20:06:00.789Z,7.30
2018-10-01T20:08:31.263Z,7.46
2018-10-01T20:11:01.811Z,7.48
2018-10-01T20:13:32.249Z,7.74
2018-10-01T20:16:02.640Z,7.72
2018-10-01T20:18:33.251Z,7.65
2018-10-01T20:21:03.838Z,7.62
2018-10-01T20:23:34.464Z,7.69
2018-10-01T20:26:04.745Z,7.71
2018-10-01T20:28:35.274Z,7.63
2018-10-01T20:31:05.519Z,7.60
2018-10-01T20:33:35.987Z,7.78
2018-10-01T20:36:06.423Z,7.91
2018-10-01T20:38:36.738Z,7.87
2018-10-01T20:41:07.240Z,7.94
2018-10-01T20:43:37.692Z,7.86
2018-10-01T20:46:08.207Z,7.79
2018-10-01T20:48:38.439Z,7.65
2018-10-01T20:51:08.868Z,7.54
2018-10-01T20:53:39.384Z,7.67
2018-10-01T20:56:09.849Z,7.53
2018-10-01T20:58:40.351Z,7.46
2018-10-01T21:01:10.997Z,7.33
2018-10-01T21:03:41.256Z,7.22
2018-10-01T21:06:11.748Z,7.17
2018-10-01T21:08:42.136Z,7.21
2018-10-01T21:11:12.633Z,7.08
2018-10-01T21:13:43.084Z,7.20
2018-10-01T21:16:13.514Z,7.00
2018-10-01T21:18:44.143Z,6.91
2018-10-01T21:21:14.556Z,6.86
2018-10-01T21:23:45.148Z,6.94
2018-10-01T21:26:15.710Z,6.93
2018-10-01T21:28:46.178Z,6.92
2018-10-01T21:31:16.801Z,6.84
2018-10-01T21:33:48.039Z,6.79
2018-10-01T21:36:18.471Z,6.91
2018-10-01T21:38:49.012Z,6.78
2018-10-01T21:41:19.737Z,6.78
2018-10-01T21:43:50.187Z,6.82
2018-10-01T21:46:20.693Z,6.92
2018-10-01T21:48:50.949Z,6.88
2018-10-01T21:51:21.348Z,6.70
2018-10-01T21:53:51.823Z,6.70
2018-10-01T21:56:22.313Z,6.82
2018-10-01T21:58:52.775Z,6.64
2018-10-01T22:01:28.010Z,6.67
2018-10-01T22:03:58.250Z,6.61
2018-10-01T22:06:28.627Z,6.58
2018-10-01T22:08:59.215Z,6.61
2018-10-01T22:11:29.598Z,6.51
2018-10-01T22:13:59.959Z,6.37
2018-10-01T22:16:30.442Z,6.26
2018-10-01T22:19:00.937Z,6.28
2018-10-01T22:21:31.211Z,6.33
2018-10-01T22:24:01.628Z,6.25
2018-10-01T22:26:31.840Z,6.25
2018-10-01T22:29:02.256Z,6.31
2018-10-01T22:31:32.648Z,6.30
2018-10-01T22:34:03.195Z,6.31
2018-10-01T22:36:33.455Z,6.34
2018-10-01T22:39:04.831Z,6.34
2018-10-01T22:41:35.173Z,6.17
2018-10-01T22:44:05.648Z,6.25
2018-10-01T22:46:36.295Z,6.13
2018-10-01T22:49:06.823Z,6.25
2018-10-01T22:51:37.519Z,6.17
2018-10-01T22:54:08.090Z,6.17
2018-10-01T22:56:38.390Z,6.27
2018-10-01T22:59:08.759Z,6.27
2018-10-01T23:01:39.098Z,6.20
2018-10-01T23:04:17.289Z,6.12
2018-10-01T23:06:47.664Z,6.08
2018-10-01T23:09:18.034Z,6.08
2018-10-01T23:11:48.216Z,6.11
2018-10-01T23:14:18.584Z,6.06
2018-10-01T23:16:48.990Z,6.23
2018-10-01T23:19:19.256Z,6.05
2018-10-01T23:21:49.719Z,5.94
2018-10-01T23:24:20.095Z,5.94
2018-10-01T23:26:50.401Z,5.90
2018-10-01T23:29:20.659Z,5.99
2018-10-01T23:31:50.924Z,6.01
2018-10-01T23:34:21.408Z,5.96
2018-10-01T23:36:51.716Z,6.07
2018-10-01T23:39:21.961Z,5.96
2018-10-01T23:41:52.349Z,5.83
2018-10-01T23:44:22.825Z,5.82
2018-10-01T23:46:53.235Z,5.80
2018-10-01T23:49:23.811Z,5.66
2018-10-01T23:51:54.440Z,5.78
2018-10-01T23:54:24.756Z,5.74
2018-10-01T23:56:55.132Z,5.68
2018-10-01T23:59:25.715Z,5.69
